Time;durP1;ratioP1;P1;durP2;ratioP2;P2;SDS_P1;SDS_P2;PMS_P1;PMS_P2;Temp;Humidity;BMP_temperature;BMP_pressure;BME280_temperature;BME280_humidity;BME280_pressure;Samples;Min_cycle;Max_cycle;Signal;HPM_P1;HPM_P2
2022/11/08 00:01:31;;;;;;;;;;;;;;;26.29;32.92;101305.63;5076224;28;1160;-38
2022/11/08 00:03:56;;;;;;;;;;;;;;;26.36;33.07;101305.84;5076408;28;1183;-37
2022/11/08 00:14:33;;;;;;;;;;;;;;;26.33;33.03;101310.72;5075787;28;1119;-40
2022/11/08 00:16:58;;;;;;;;;;;;;;;26.35;33.13;101306.00;5076045;28;1883;-38
2022/11/08 00:19:24;;;;;;;;;;;;;;;26.36;33.25;101305.84;5061166;28;1175;-37
2022/11/08 00:21:49;;;;;;;;;;;;;;;26.36;33.14;101299.63;5076178;28;1163;-38
2022/11/08 00:24:14;;;;;;;;;;;;;;;26.34;33.43;101301.63;5076216;28;1151;-37
2022/11/08 00:26:39;;;;;;;;;;;;;;;26.31;33.23;101308.16;5075971;28;1143;-38
2022/11/08 00:29:05;;;;;;;;;;;;;;;26.31;33.20;101304.63;5075778;28;1021;-38
2022/11/08 00:31:30;;;;;;;;;;;;;;;26.30;33.04;101303.78;5064914;28;1057;-39
2022/11/08 00:33:55;;;;;;;;;;;;;;;26.32;33.51;101304.47;5076240;28;1107;-40
2022/11/08 00:36:21;;;;;;;;;;;;;;;26.29;33.52;101299.41;5075486;28;1949;-40
2022/11/08 00:38:46;;;;;;;;;;;;;;;26.21;33.39;101302.91;5076257;28;1152;-40
2022/11/08 00:41:11;;;;;;;;;;;;;;;26.23;33.33;101300.03;5075829;28;1143;-39
2022/11/08 00:43:36;;;;;;;;;;;;;;;26.21;33.44;101302.91;5066793;28;868;-40
2022/11/08 00:46:02;;;;;;;;;;;;;;;26.23;33.63;101303.59;5075830;28;1088;-40
2022/11/08 00:48:27;;;;;;;;;;;;;;;26.19;33.94;101296.84;5076302;28;1143;-40
2022/11/08 00:50:52;;;;;;;;;;;;;;;26.21;33.70;101289.41;5075591;28;1132;-40
2022/11/08 00:53:18;;;;;;;;;;;;;;;26.18;33.74;101297.84;5075886;28;1139;-40
2022/11/08 00:55:43;;;;;;;;;;;;;;;26.16;33.66;101295.31;5066670;28;1959;-40
2022/11/08 00:58:08;;;;;;;;;;;;;;;26.23;33.75;101289.25;5075790;28;1139;-40
2022/11/08 01:00:34;;;;;;;;;;;;;;;26.24;33.73;101281.00;5076289;28;1120;-40
2022/11/08 01:05:43;;;;;;;;;;;;;;;26.26;33.61;101291.63;5074583;28;1230;-40
2022/11/08 01:08:08;;;;;;;;;;;;;;;26.21;33.49;101285.91;5066610;28;1120;-40
2022/11/08 01:10:34;;;;;;;;;;;;;;;26.27;33.55;101280.69;5075547;28;1127;-40
2022/11/08 01:12:59;;;;;;;;;;;;;;;26.23;33.35;101292.81;5075109;28;1244;-40
2022/11/08 01:15:25;;;;;;;;;;;;;;;26.29;33.24;101292.13;5075594;28;1960;-40
2022/11/08 01:17:50;;;;;;;;;;;;;;;26.32;33.27;101287.44;5074308;28;1120;-38
2022/11/08 01:20:15;;;;;;;;;;;;;;;26.26;33.37;101284.38;5066673;28;1183;-38
2022/11/08 01:22:41;;;;;;;;;;;;;;;26.23;33.66;101283.84;5075053;28;1405;-38
2022/11/08 01:25:07;;;;;;;;;;;;;;;26.19;33.81;101279.81;5075953;28;1127;-38
2022/11/08 01:27:32;;;;;;;;;;;;;;;26.24;33.79;101286.41;5075083;28;1160;-37
2022/11/08 01:29:57;;;;;;;;;;;;;;;26.23;33.36;101286.56;5075954;28;1123;-38
2022/11/08 01:32:23;;;;;;;;;;;;;;;26.23;33.25;101287.41;5073387;28;1112;-38
2022/11/08 01:34:48;;;;;;;;;;;;;;;26.19;33.32;101285.22;5079087;28;1163;-38
2022/11/08 01:37:14;;;;;;;;;;;;;;;26.24;33.29;101286.41;5078815;28;1969;-38
2022/11/08 01:39:39;;;;;;;;;;;;;;;26.15;33.64;101287.38;5078803;28;1226;-38
2022/11/08 01:42:04;;;;;;;;;;;;;;;26.18;33.56;101289.75;5077793;28;1131;-37
2022/11/08 01:44:29;;;;;;;;;;;;;;;26.19;33.55;101294.16;5075172;28;1136;-38
2022/11/08 01:46:55;;;;;;;;;;;;;;;26.17;33.64;101291.59;5079119;28;1108;-41
2022/11/08 01:49:22;;;;;;;;;;;;;;;26.15;33.75;101296.34;5079083;28;1187;-40
2022/11/08 01:51:54;;;;;;;;;;;;;;;26.09;33.37;101286.19;5078755;28;1080;-39
2022/11/08 01:54:22;;;;;;;;;;;;;;;26.09;33.53;101282.66;5075982;28;1120;-39
2022/11/08 01:56:47;;;;;;;;;;;;;;;26.07;33.79;101285.50;5076596;28;1910;-40
2022/11/08 01:59:12;;;;;;;;;;;;;;;26.15;33.64;101288.25;5060630;28;1196;-39
2022/11/08 02:01:38;;;;;;;;;;;;;;;26.15;33.46;101276.59;5061004;28;1100;-40
2022/11/08 02:04:03;;;;;;;;;;;;;;;26.14;33.74;101283.84;5078442;28;1167;-38
2022/11/08 02:06:28;;;;;;;;;;;;;;;26.12;34.05;101280.47;5057220;28;1203;-39
2022/11/08 02:08:54;;;;;;;;;;;;;;;26.09;34.08;101272.69;5075645;28;1187;-39
2022/11/08 02:11:19;;;;;;;;;;;;;;;26.16;33.59;101279.13;5060190;28;1208;-39
2022/11/08 02:13:44;;;;;;;;;;;;;;;26.09;33.68;101285.34;5078315;28;1092;-39
2022/11/08 02:16:10;;;;;;;;;;;;;;;26.03;33.88;101284.13;5060545;28;1894;-39
2022/11/08 02:18:35;;;;;;;;;;;;;;;26.05;33.87;101287.53;5075210;28;1163;-37
2022/11/08 02:21:10;;;;;;;;;;;;;;;26.09;34.23;101307.75;5076914;28;1186;-39
2022/11/08 02:23:48;;;;;;;;;;;;;;;26.08;34.01;101289.03;5077993;28;1143;-39
2022/11/08 02:26:13;;;;;;;;;;;;;;;26.04;33.85;101292.06;5059779;28;1121;-39
2022/11/08 02:28:39;;;;;;;;;;;;;;;26.15;33.84;101299.03;5060398;28;1202;-40
2022/11/08 02:31:06;;;;;;;;;;;;;;;26.08;34.04;101297.13;5074906;28;1128;-39
2022/11/08 02:33:32;;;;;;;;;;;;;;;26.13;34.21;101292.94;5077774;28;1099;-39
2022/11/08 02:35:57;;;;;;;;;;;;;;;26.02;34.04;101288.72;5078158;28;1902;-40
2022/11/08 02:38:22;;;;;;;;;;;;;;;26.05;34.16;101290.22;5060105;28;1195;-38
2022/11/08 02:40:51;;;;;;;;;;;;;;;26.09;33.87;101293.44;5077365;28;1160;-39
2022/11/08 02:43:16;;;;;;;;;;;;;;;26.03;34.01;101294.91;5076727;28;921;-39
2022/11/08 02:45:42;;;;;;;;;;;;;;;26.04;34.27;101297.44;5077726;28;1135;-39
2022/11/08 02:48:07;;;;;;;;;;;;;;;26.06;34.20;101293.78;5077699;28;1503;-39
2022/11/08 02:50:32;;;;;;;;;;;;;;;26.02;34.10;101298.63;5078027;28;1148;-39
2022/11/08 02:52:58;;;;;;;;;;;;;;;26.08;34.09;101295.28;5077821;28;1104;-40
2022/11/08 02:55:23;;;;;;;;;;;;;;;26.06;34.23;101299.97;5069704;28;1906;-39
2022/11/08 02:57:48;;;;;;;;;;;;;;;26.07;34.26;101301.69;5071172;28;1089;-40
2022/11/08 03:00:14;;;;;;;;;;;;;;;26.08;34.07;101295.28;5077731;28;1166;-40
2022/11/08 03:02:39;;;;;;;;;;;;;;;26.11;34.09;101300.34;5077239;28;1147;-39
2022/11/08 03:05:04;;;;;;;;;;;;;;;26.09;34.03;101296.97;5076941;28;1175;-37
2022/11/08 03:07:30;;;;;;;;;;;;;;;26.15;33.99;101298.16;5075324;28;1084;-37
2022/11/08 03:09:56;;;;;;;;;;;;;;;26.16;33.92;101298.00;5077333;28;1202;-38
2022/11/08 03:12:21;;;;;;;;;;;;;;;26.20;34.02;101298.53;5077172;28;1104;-38
2022/11/08 03:14:46;;;;;;;;;;;;;;;26.18;33.93;101297.84;5077078;28;1377;-40
2022/11/08 03:17:12;;;;;;;;;;;;;;;26.16;34.20;101297.16;5077063;28;1980;-40
2022/11/08 03:19:37;;;;;;;;;;;;;;;26.07;34.15;101296.28;5076388;28;882;-39
2022/11/08 03:22:02;;;;;;;;;;;;;;;26.12;34.00;101296.66;5059406;28;1160;-40
2022/11/08 03:24:27;;;;;;;;;;;;;;;26.06;34.23;101304.56;5059099;28;1140;-39
2022/11/08 03:26:53;;;;;;;;;;;;;;;26.14;33.79;101301.88;5076589;28;1096;-39
2022/11/08 03:29:18;;;;;;;;;;;;;;;26.06;33.92;101307.25;5076970;28;1190;-39
2022/11/08 03:31:43;;;;;;;;;;;;;;;26.05;34.20;101303.69;5068956;28;1140;-39
2022/11/08 03:34:09;;;;;;;;;;;;;;;26.09;34.05;101306.91;5071669;28;1218;-39
2022/11/08 03:36:34;;;;;;;;;;;;;;;26.08;34.19;101299.81;5076590;28;1894;-39
2022/11/08 03:39:00;;;;;;;;;;;;;;;26.07;34.15;101301.69;5076918;28;1155;-39
2022/11/08 03:41:25;;;;;;;;;;;;;;;26.10;33.96;101305.91;5077044;28;1163;-40
2022/11/08 03:43:50;;;;;;;;;;;;;;;26.09;33.97;101301.53;5073557;28;1199;-40
2022/11/08 03:46:16;;;;;;;;;;;;;;;26.15;33.84;101301.72;5076410;28;1187;-40
2022/11/08 03:48:41;;;;;;;;;;;;;;;26.11;33.50;101308.44;5075849;28;1132;-39
2022/11/08 03:51:06;;;;;;;;;;;;;;;25.83;34.37;101308.66;5076675;28;1163;-39
2022/11/08 03:53:31;;;;;;;;;;;;;;;25.78;34.59;101309.13;5075221;28;1112;-40
2022/11/08 03:56:00;;;;;;;;;;;;;;;25.75;34.04;101306.78;5073845;28;1889;-41
2022/11/08 03:58:25;;;;;;;;;;;;;;;25.60;34.04;101306.47;5076120;28;1092;-42
2022/11/08 04:00:50;;;;;;;;;;;;;;;25.60;34.52;101302.94;5076640;28;1194;-41
2022/11/08 04:03:15;;;;;;;;;;;;;;;25.55;34.61;101306.09;5075885;28;1149;-42
2022/11/08 04:05:41;;;;;;;;;;;;;;;25.50;34.87;101311.97;5075505;28;2067;-38
2022/11/08 04:08:06;;;;;;;;;;;;;;;25.61;33.75;101308.16;5067103;28;1100;-41
2022/11/08 04:10:31;;;;;;;;;;;;;;;25.56;33.86;101307.78;5071707;28;1073;-41
2022/11/08 04:15:43;;;;;;;;;;;;;;;25.38;34.88;101303.31;5075329;28;1901;-40
2022/11/08 04:23:36;;;;;;;;;;;;;;;25.31;34.97;101302.22;5073754;28;1041;-40
2022/11/08 04:26:03;;;;;;;;;;;;;;;25.34;34.85;101304.59;5075164;28;1298;-39
2022/11/08 04:28:29;;;;;;;;;;;;;;;25.33;35.05;101304.78;5075156;28;1148;-40
2022/11/08 04:30:58;;;;;;;;;;;;;;;25.30;34.96;101303.25;5075721;28;1187;-39
2022/11/08 04:33:24;;;;;;;;;;;;;;;25.30;34.64;101301.41;5070994;28;852;-41
2022/11/08 04:35:49;;;;;;;;;;;;;;;25.30;34.95;101301.41;5074966;28;2153;-41
2022/11/08 04:38:14;;;;;;;;;;;;;;;25.34;34.60;101306.47;5075071;28;1262;-41
2022/11/08 04:40:40;;;;;;;;;;;;;;;25.35;34.61;101308.16;5075332;28;1148;-42
2022/11/08 04:43:05;;;;;;;;;;;;;;;25.35;31.62;101305.47;5075592;28;995;-42
2022/11/08 04:45:30;;;;;;;;;;;;;;;25.21;31.05;101309.59;5069902;28;947;-40
2022/11/08 04:47:56;;;;;;;;;;;;;;;25.00;30.41;101314.28;5075288;28;1143;-39
2022/11/08 04:50:21;;;;;;;;;;;;;;;24.88;29.32;101319.03;5076079;28;1258;-39
2022/11/08 04:52:50;;;;;;;;;;;;;;;24.72;29.09;101308.97;5075595;28;1135;-39
2022/11/08 04:55:15;;;;;;;;;;;;;;;24.67;29.00;101306.72;5075466;28;1953;-38
2022/11/08 04:57:40;;;;;;;;;;;;;;;24.59;28.86;101320.06;5061515;28;1211;-38
2022/11/08 05:00:06;;;;;;;;;;;;;;;24.52;28.72;101319.00;5075784;28;1128;-40
2022/11/08 05:02:31;;;;;;;;;;;;;;;24.48;28.72;101317.59;5076008;28;1175;-39
2022/11/08 05:04:56;;;;;;;;;;;;;;;24.63;28.80;101316.09;5077346;28;1222;-41
2022/11/08 05:07:22;;;;;;;;;;;;;;;25.00;29.79;101317.00;5079204;28;2492;-38
2022/11/08 05:09:47;;;;;;;;;;;;;;;25.22;29.77;101320.19;5079500;28;946;-40
2022/11/08 05:12:12;;;;;;;;;;;;;;;25.28;30.70;101324.94;5079285;28;1285;-38
2022/11/08 05:14:37;;;;;;;;;;;;;;;25.29;31.20;101321.25;5079528;28;1100;-39
2022/11/08 05:17:03;;;;;;;;;;;;;;;25.29;31.11;101323.94;5078882;28;1906;-38
2022/11/08 05:24:56;;;;;;;;;;;;;;;25.48;32.09;101329.28;5063630;28;1116;-38
2022/11/08 05:27:21;;;;;;;;;;;;;;;26.88;29.96;101332.75;5078953;28;1114;-39
2022/11/08 05:29:47;;;;;;;;;;;;;;;27.97;28.70;101338.94;5079515;28;1115;-40
2022/11/08 05:32:12;;;;;;;;;;;;;;;29.10;27.36;101337.81;5078570;28;1068;-39
2022/11/08 05:34:37;;;;;;;;;;;;;;;29.52;26.69;101332.00;5078973;28;1361;-40
2022/11/08 05:37:03;;;;;;;;;;;;;;;29.81;26.20;101335.81;5055571;28;2508;-40
2022/11/08 05:39:28;;;;;;;;;;;;;;;30.25;25.82;101335.94;5078823;28;1222;-39
2022/11/08 05:41:53;;;;;;;;;;;;;;;30.50;25.53;101341.88;5078980;28;1099;-38
2022/11/08 05:44:18;;;;;;;;;;;;;;;30.61;25.50;101348.69;5078483;28;1139;-38
2022/11/08 05:46:44;;;;;;;;;;;;;;;30.72;25.10;101343.78;5078480;28;1111;-38
2022/11/08 05:49:09;;;;;;;;;;;;;;;30.84;25.08;101339.56;5078541;28;1178;-37
2022/11/08 05:51:34;;;;;;;;;;;;;;;30.96;24.90;101348.03;5078332;28;1199;-37
2022/11/08 05:53:59;;;;;;;;;;;;;;;30.62;25.33;101342.22;5078678;28;1127;-37
2022/11/08 05:56:25;;;;;;;;;;;;;;;30.38;25.94;101346.97;5078454;28;1894;-37
2022/11/08 05:58:50;;;;;;;;;;;;;;;30.71;25.49;101352.97;5078414;28;1123;-37
2022/11/08 06:01:16;;;;;;;;;;;;;;;30.90;25.18;101362.38;5077643;28;1124;-38
2022/11/08 06:03:41;;;;;;;;;;;;;;;30.99;25.10;101369.38;5078088;28;1247;-37
2022/11/08 06:06:08;;;;;;;;;;;;;;;31.10;25.08;101378.00;5076753;28;2237;-40
2022/11/08 06:08:33;;;;;;;;;;;;;;;31.09;25.12;101382.63;5076044;28;1199;-37
2022/11/08 06:11:02;;;;;;;;;;;;;;;31.22;24.91;101383.75;5077769;28;1550;-37
2022/11/08 06:13:27;;;;;;;;;;;;;;;31.38;24.65;101388.91;5077074;28;1275;-38
2022/11/08 06:15:53;;;;;;;;;;;;;;;31.41;24.65;101385.00;5076777;28;1902;-36
2022/11/08 06:18:18;;;;;;;;;;;;;;;31.33;25.11;101388.66;5077581;28;1419;-38
2022/11/08 06:20:43;;;;;;;;;;;;;;;31.40;25.10;101396.91;5072423;28;1112;-38
2022/11/08 06:23:08;;;;;;;;;;;;;;;31.60;24.85;101397.06;5072927;28;1246;-40
2022/11/08 06:25:34;;;;;;;;;;;;;;;31.65;24.62;101388.28;5077518;28;1211;-39
2022/11/08 06:27:59;;;;;;;;;;;;;;;31.12;25.21;101387.66;5059372;28;1247;-38
2022/11/08 06:30:24;;;;;;;;;;;;;;;30.90;25.69;101390.38;5077456;28;1199;-38
2022/11/08 06:32:50;;;;;;;;;;;;;;;30.71;25.74;101391.84;5076775;28;1199;-36
2022/11/08 06:35:15;;;;;;;;;;;;;;;30.73;26.02;101388.94;5075824;28;2235;-39
2022/11/08 06:37:43;;;;;;;;;;;;;;;30.76;26.04;101392.06;5077075;28;1318;-36
2022/11/08 06:40:08;;;;;;;;;;;;;;;30.83;25.87;101402.22;5077870;28;1238;-38
2022/11/08 06:42:34;;;;;;;;;;;;;;;30.84;25.74;101403.88;5076607;28;1167;-36
2022/11/08 06:44:59;;;;;;;;;;;;;;;30.92;25.66;101406.47;5076900;28;1259;-38
2022/11/08 06:47:24;;;;;;;;;;;;;;;30.88;25.81;101389.72;5077233;28;1203;-36
2022/11/08 06:49:49;;;;;;;;;;;;;;;31.00;25.74;101397.34;5059352;28;1180;-36
2022/11/08 06:52:15;;;;;;;;;;;;;;;31.01;25.60;101399.88;5076922;28;1238;-37
2022/11/08 06:54:40;;;;;;;;;;;;;;;31.04;25.74;101398.66;5076591;28;1226;-36
2022/11/08 06:57:05;;;;;;;;;;;;;;;31.14;25.59;101407.34;5077255;28;1902;-39
2022/11/08 06:59:31;;;;;;;;;;;;;;;31.06;25.59;101403.91;5077293;28;1241;-38
2022/11/08 07:01:56;;;;;;;;;;;;;;;31.09;25.83;101403.50;5077090;28;1166;-37
2022/11/08 07:04:21;;;;;;;;;;;;;;;31.02;25.70;101400.72;5077897;28;1218;-37
2022/11/08 07:06:47;;;;;;;;;;;;;;;30.84;25.89;101396.59;5076229;28;2453;-37
2022/11/08 07:09:12;;;;;;;;;;;;;;;30.75;26.13;101392.28;5077138;28;1136;-36
2022/11/08 07:11:38;;;;;;;;;;;;;;;30.27;26.65;101397.16;5076732;28;1202;-37
2022/11/08 07:14:03;;;;;;;;;;;;;;;30.46;26.64;101402.19;5077294;28;1272;-37
2022/11/08 07:16:28;;;;;;;;;;;;;;;30.58;26.40;101402.53;5077286;28;1985;-37
2022/11/08 07:18:54;;;;;;;;;;;;;;;30.55;26.43;101399.16;5076363;28;1075;-37
2022/11/08 07:21:20;;;;;;;;;;;;;;;30.48;26.75;101397.41;5076706;28;1123;-40
2022/11/08 07:23:47;;;;;;;;;;;;;;;30.59;26.38;101396.91;5076809;28;1178;-38
2022/11/08 07:26:12;;;;;;;;;;;;;;;30.47;26.56;101396.56;5076893;28;1120;-39
2022/11/08 07:28:37;;;;;;;;;;;;;;;30.33;26.49;101390.13;5076763;28;1179;-39
2022/11/08 07:31:03;;;;;;;;;;;;;;;30.01;27.06;101394.91;5076271;28;1096;-38
2022/11/08 07:33:28;;;;;;;;;;;;;;;29.74;27.24;101398.06;5076810;28;1139;-38
2022/11/08 07:35:54;;;;;;;;;;;;;;;29.53;27.93;101396.06;5069830;28;2374;-38
2022/11/08 07:38:19;;;;;;;;;;;;;;;29.74;27.97;101405.34;5070857;28;1168;-38
2022/11/08 07:40:45;;;;;;;;;;;;;;;29.97;27.56;101412.56;5076486;28;1249;-39
2022/11/08 07:43:10;;;;;;;;;;;;;;;30.27;27.08;101410.72;5076468;28;1183;-39
2022/11/08 07:45:35;;;;;;;;;;;;;;;29.80;27.45;101413.59;5075551;28;1234;-40
2022/11/08 07:48:01;;;;;;;;;;;;;;;29.60;27.69;101412.44;5075508;28;1246;-39
2022/11/08 07:50:27;;;;;;;;;;;;;;;29.30;28.11;101419.44;5076472;28;1259;-39
2022/11/08 07:52:52;;;;;;;;;;;;;;;29.16;28.29;101418.34;5076499;28;1164;-39
2022/11/08 07:55:18;;;;;;;;;;;;;;;28.98;28.79;101415.94;5075662;28;1953;-38
2022/11/08 07:57:44;;;;;;;;;;;;;;;29.41;28.01;101417.34;5075926;28;1337;-38
2022/11/08 08:00:09;;;;;;;;;;;;;;;29.09;28.28;101415.53;5075707;28;1294;-38
2022/11/08 08:02:34;;;;;;;;;;;;;;;28.92;28.83;101425.59;5076388;28;1345;-38
2022/11/08 08:05:00;;;;;;;;;;;;;;;29.36;28.42;101417.03;5075802;28;1337;-38
2022/11/08 08:07:25;;;;;;;;;;;;;;;29.07;28.28;101419.44;5075510;28;1316;-37
2022/11/08 08:09:50;;;;;;;;;;;;;;;28.89;28.53;101422.41;5075289;28;1301;-38
2022/11/08 08:12:16;;;;;;;;;;;;;;;29.08;28.75;101419.25;5075627;28;1309;-38
2022/11/08 08:14:41;;;;;;;;;;;;;;;29.20;28.21;101419.69;5075775;28;1341;-38
2022/11/08 08:17:06;;;;;;;;;;;;;;;28.91;28.79;101420.38;5075536;28;1913;-38
2022/11/08 08:19:31;;;;;;;;;;;;;;;28.81;29.25;101417.91;5076359;28;1235;-37
2022/11/08 08:21:57;;;;;;;;;;;;;;;29.04;28.59;101420.66;5077649;28;1361;-38
2022/11/08 08:24:22;;;;;;;;;;;;;;;28.65;29.12;101419.66;5075933;28;1147;-38
2022/11/08 08:26:47;;;;;;;;;;;;;;;28.57;29.36;101419.72;5075895;28;1175;-38
2022/11/08 08:29:12;;;;;;;;;;;;;;;29.17;28.56;101414.63;5075795;28;1210;-39
2022/11/08 08:31:38;;;;;;;;;;;;;;;29.07;28.49;101416.72;5076260;28;1230;-37
2022/11/08 08:34:03;;;;;;;;;;;;;;;28.82;28.82;101415.00;5075501;28;1191;-37
2022/11/08 08:36:28;;;;;;;;;;;;;;;29.13;28.91;101409.75;5075520;28;1960;-38
2022/11/08 08:38:54;;;;;;;;;;;;;;;28.84;28.81;101412.94;5075023;28;1234;-39
2022/11/08 08:41:19;;;;;;;;;;;;;;;28.75;28.94;101413.16;5075597;28;1175;-39
2022/11/08 08:43:45;;;;;;;;;;;;;;;28.99;29.24;101406.81;5076057;28;1159;-39
2022/11/08 08:46:10;;;;;;;;;;;;;;;29.20;28.39;101408.00;5075299;28;1131;-38
2022/11/08 08:48:37;;;;;;;;;;;;;;;28.94;28.84;101403.75;5076097;28;1151;-40
2022/11/08 08:51:02;;;;;;;;;;;;;;;28.91;28.80;101404.94;5075575;28;1151;-39
2022/11/08 08:53:28;;;;;;;;;;;;;;;28.92;28.81;101405.81;5074419;28;1223;-39
2022/11/08 08:55:53;;;;;;;;;;;;;;;29.20;28.76;101403.44;5075336;28;1909;-37
2022/11/08 08:58:18;;;;;;;;;;;;;;;28.80;28.83;101411.63;5074689;28;929;-36
2022/11/08 09:00:44;;;;;;;;;;;;;;;28.70;28.94;101403.75;5076165;28;1198;-36
2022/11/08 09:03:09;;;;;;;;;;;;;;;28.70;29.17;101406.44;5075872;28;1156;-40
2022/11/08 09:05:34;;;;;;;;;;;;;;;28.96;28.95;101405.25;5075638;28;1186;-39
2022/11/08 09:08:00;;;;;;;;;;;;;;;28.77;29.25;101395.75;5075320;28;1167;-38
2022/11/08 09:10:25;;;;;;;;;;;;;;;28.71;29.29;101394.59;5057523;28;1273;-37
2022/11/08 09:12:51;;;;;;;;;;;;;;;28.71;29.18;101389.16;5075420;28;1152;-38
2022/11/08 09:15:16;;;;;;;;;;;;;;;28.82;28.97;101389.78;5076314;28;1969;-39
2022/11/08 09:17:41;;;;;;;;;;;;;;;28.86;29.43;101385.72;5075502;28;1512;-37
2022/11/08 09:20:07;;;;;;;;;;;;;;;29.03;28.66;101378.31;5075276;28;1206;-35
2022/11/08 09:22:32;;;;;;;;;;;;;;;28.70;29.17;101378.53;5075428;28;1140;-35
2022/11/08 09:24:58;;;;;;;;;;;;;;;28.64;29.30;101377.38;5074785;28;1267;-35
2022/11/08 09:27:23;;;;;;;;;;;;;;;28.63;29.17;101374.84;5075394;28;1500;-35
2022/11/08 09:29:48;;;;;;;;;;;;;;;28.63;29.43;101369.44;5075362;28;1241;-36
2022/11/08 09:32:14;;;;;;;;;;;;;;;28.71;29.16;101369.41;5075968;28;1135;-37
2022/11/08 09:34:39;;;;;;;;;;;;;;;29.15;28.72;101367.06;5066357;28;1175;-37
2022/11/08 09:37:04;;;;;;;;;;;;;;;28.71;29.15;101369.41;5075254;28;1949;-36
2022/11/08 09:39:29;;;;;;;;;;;;;;;28.74;29.32;101369.03;5056683;28;1167;-39
2022/11/08 09:41:58;;;;;;;;;;;;;;;28.66;29.40;101363.66;5074577;28;1199;-37
2022/11/08 09:44:35;;;;;;;;;;;;;;;28.65;29.25;101368.22;5074828;28;1301;-36
2022/11/08 09:47:08;;;;;;;;;;;;;;;29.00;28.85;101367.00;5073352;28;1191;-36
2022/11/08 09:49:39;;;;;;;;;;;;;;;28.71;29.42;101366.69;5056490;28;1452;-37
2022/11/08 09:52:04;;;;;;;;;;;;;;;28.63;29.49;101372.97;5058600;28;1345;-36
2022/11/08 09:54:47;;;;;;;;;;;;;;;28.60;29.66;101362.50;5060671;28;1271;-36
2022/11/08 09:57:15;;;;;;;;;;;;;;;28.81;29.13;101361.03;5078114;28;1929;-36
2022/11/08 09:59:45;;;;;;;;;;;;;;;29.09;28.69;101358.63;5060146;28;1180;-37
2022/11/08 10:02:19;;;;;;;;;;;;;;;28.72;29.25;101358.38;5060527;28;1124;-37
2022/11/08 10:04:47;;;;;;;;;;;;;;;28.51;29.57;101361.69;5059597;28;1235;-37
2022/11/08 10:07:12;;;;;;;;;;;;;;;28.75;29.62;101364.44;5061001;28;1282;-36
2022/11/08 10:09:56;;;;;;;;;;;;;;;28.72;29.02;101352.97;5078388;28;1171;-39
2022/11/08 10:12:24;;;;;;;;;;;;;;;28.59;29.19;101353.53;5072473;28;1164;-38
2022/11/08 10:15:04;;;;;;;;;;;;;;;28.65;29.71;101351.13;5064120;28;1056;-38
2022/11/08 10:17:35;;;;;;;;;;;;;;;28.53;29.56;101346.13;5078527;28;1906;-36
2022/11/08 10:20:07;;;;;;;;;;;;;;;28.34;29.81;101355.56;5064825;28;1081;-36
2022/11/08 10:22:38;;;;;;;;;;;;;;;28.78;29.48;101358.69;5078014;28;1187;-36
2022/11/08 10:25:24;;;;;;;;;;;;;;;28.50;29.51;101354.63;5064372;28;1096;-36
2022/11/08 10:27:49;;;;;;;;;;;;;;;28.44;29.88;101350.78;5077284;28;1143;-36
2022/11/08 10:30:50;;;;;;;;;;;;;;;28.84;29.13;101347.13;5077814;28;1436;-36
2022/11/08 10:33:19;;;;;;;;;;;;;;;28.51;29.65;101350.88;5010225;28;1254;-36
2022/11/08 10:36:12;;;;;;;;;;;;;;;28.50;29.61;101354.63;5043465;28;1901;-36
2022/11/08 10:38:56;;;;;;;;;;;;;;;28.83;29.20;101351.69;5074544;28;1323;-37
2022/11/08 10:41:30;;;;;;;;;;;;;;;28.57;29.34;101343.91;5077652;28;1135;-36
2022/11/08 10:44:14;;;;;;;;;;;;;;;28.66;29.22;101345.53;5060179;28;1210;-36
2022/11/08 10:46:41;;;;;;;;;;;;;;;28.88;29.22;101343.03;5077958;28;1175;-36
2022/11/08 10:49:09;;;;;;;;;;;;;;;28.62;29.43;101343.38;5077426;28;1127;-36
2022/11/08 10:51:34;;;;;;;;;;;;;;;28.64;29.17;101344.91;5059771;28;1207;-36
2022/11/08 10:54:00;;;;;;;;;;;;;;;28.92;29.21;101335.38;5077968;28;1170;-36
2022/11/08 10:56:25;;;;;;;;;;;;;;;28.92;28.92;101335.38;5059558;28;1901;-36
2022/11/08 10:58:50;;;;;;;;;;;;;;;28.45;25.65;101332.66;5077356;28;1075;-38
2022/11/08 11:01:20;;;;;;;;;;;;;;;28.87;27.16;101337.78;5069290;28;1033;-38
2022/11/08 11:03:46;;;;;;;;;;;;;;;28.75;26.35;101340.06;5076849;28;1175;-37
2022/11/08 11:06:24;;;;;;;;;;;;;;;28.96;25.50;101334.84;5077710;28;957;-39
2022/11/08 11:08:50;;;;;;;;;;;;;;;29.17;26.37;101335.22;5077210;28;1128;-38
2022/11/08 11:11:22;;;;;;;;;;;;;;;29.21;26.13;101337.38;5068854;28;1148;-40
2022/11/08 11:14:03;;;;;;;;;;;;;;;29.07;25.25;101322.78;5072404;28;1195;-40
2022/11/08 11:16:29;;;;;;;;;;;;;;;29.34;24.67;101325.91;5077118;28;1902;-39
2022/11/08 11:18:54;;;;;;;;;;;;;;;28.70;24.37;101327.09;5059264;28;1100;-39
2022/11/08 11:21:20;;;;;;;;;;;;;;;28.10;24.04;101327.56;5059090;28;1238;-35
2022/11/08 11:23:57;;;;;;;;;;;;;;;29.08;23.69;101313.63;5064231;28;1516;-37
2022/11/08 11:26:26;;;;;;;;;;;;;;;28.82;24.71;101328.38;5061850;28;1236;-36
2022/11/08 11:29:00;;;;;;;;;;;;;;;28.58;24.57;101321.22;5075616;28;1379;-35
2022/11/08 11:31:26;;;;;;;;;;;;;;;29.21;24.12;101321.13;5071008;28;1061;-36
2022/11/08 11:33:51;;;;;;;;;;;;;;;29.62;24.26;101308.22;5076311;28;1580;-36
2022/11/08 11:36:19;;;;;;;;;;;;;;;28.98;23.44;101318.44;5068072;28;1890;-35
2022/11/08 11:38:47;;;;;;;;;;;;;;;29.00;23.09;101312.84;5059387;28;1115;-37
2022/11/08 11:41:17;;;;;;;;;;;;;;;29.08;22.66;101310.06;5075686;28;1370;-36
2022/11/08 11:43:55;;;;;;;;;;;;;;;28.72;23.38;101308.81;5058079;28;1465;-36
2022/11/08 11:46:43;;;;;;;;;;;;;;;29.14;23.66;101305.78;5075679;28;1328;-37
2022/11/08 11:49:12;;;;;;;;;;;;;;;27.96;24.21;101311.03;5069526;28;2060;-34
2022/11/08 11:51:38;;;;;;;;;;;;;;;28.79;23.64;101311.63;5075355;28;1262;-35
2022/11/08 11:54:04;;;;;;;;;;;;;;;28.76;22.92;101307.41;5057931;28;1290;-35
2022/11/08 11:56:32;;;;;;;;;;;;;;;28.47;23.43;101307.13;5057996;28;1949;-34
2022/11/08 11:59:13;;;;;;;;;;;;;;;28.90;23.37;101305.78;5075807;28;1187;-35
2022/11/08 12:01:45;;;;;;;;;;;;;;;28.16;24.04;101307.09;5058850;28;1191;-34
2022/11/08 12:04:29;;;;;;;;;;;;;;;28.37;24.29;101314.59;5061921;28;1093;-34
2022/11/08 12:07:26;;;;;;;;;;;;;;;28.32;23.93;101306.16;5076184;28;1215;-34
2022/11/08 12:09:54;;;;;;;;;;;;;;;28.06;24.43;101313.53;5033644;28;1209;-33
2022/11/08 12:12:38;;;;;;;;;;;;;;;28.79;23.75;101307.06;5075433;28;1135;-34
2022/11/08 12:15:04;;;;;;;;;;;;;;;28.31;24.25;101310.72;5075235;28;1092;-33
2022/11/08 12:17:52;;;;;;;;;;;;;;;28.29;24.48;101312.78;5075892;28;1910;-34
2022/11/08 12:20:20;;;;;;;;;;;;;;;28.72;23.64;101309.66;5065339;28;1644;-34
2022/11/08 12:22:58;;;;;;;;;;;;;;;28.17;24.36;101311.47;5076062;28;1334;-35
2022/11/08 12:25:26;;;;;;;;;;;;;;;28.43;23.93;101308.47;5069041;28;2185;-35
2022/11/08 12:27:52;;;;;;;;;;;;;;;28.67;24.04;101309.34;5075548;28;2090;-35
2022/11/08 12:30:18;;;;;;;;;;;;;;;28.54;23.72;101309.94;5057594;28;1302;-35
2022/11/08 12:32:46;;;;;;;;;;;;;;;28.07;23.99;101307.13;5075261;28;1353;-35
2022/11/08 12:35:11;;;;;;;;;;;;;;;28.49;24.23;101301.53;5074716;28;1005;-35
2022/11/08 12:37:37;;;;;;;;;;;;;;;28.60;23.68;101308.38;5076073;28;1968;-35
2022/11/08 12:40:05;;;;;;;;;;;;;;;28.33;24.10;101307.84;5075136;28;1203;-35
2022/11/08 12:42:32;;;;;;;;;;;;;;;28.76;23.99;101304.69;5057957;28;1298;-35
2022/11/08 12:45:16;;;;;;;;;;;;;;;28.46;24.04;101307.28;5075390;28;1365;-35
2022/11/08 12:48:07;;;;;;;;;;;;;;;28.18;24.19;101307.72;5075302;28;1191;-35
2022/11/08 12:50:39;;;;;;;;;;;;;;;28.62;23.76;101303.63;5068780;28;1608;-35
2022/11/08 12:53:25;;;;;;;;;;;;;;;28.20;24.32;101311.09;5076179;28;1163;-39
2022/11/08 12:55:51;;;;;;;;;;;;;;;28.59;24.56;101304.81;5057540;28;1902;-35
2022/11/08 12:58:24;;;;;;;;;;;;;;;28.56;25.77;101307.06;5056110;28;1218;-38
2022/11/08 13:00:51;;;;;;;;;;;;;;;28.42;25.96;101309.50;5057381;28;1294;-37
2022/11/08 13:03:25;;;;;;;;;;;;;;;28.77;25.44;101310.97;5057526;28;1259;-36
2022/11/08 13:06:06;;;;;;;;;;;;;;;28.58;25.83;101313.97;5074977;28;1275;-36
2022/11/08 13:08:39;;;;;;;;;;;;;;;28.41;26.37;101312.41;5073844;28;1461;-36
2022/11/08 13:11:05;;;;;;;;;;;;;;;28.74;26.01;101309.47;5057303;28;1232;-36
2022/11/08 13:13:33;;;;;;;;;;;;;;;28.39;26.48;101312.56;5057461;28;1101;-36